Stella Polaris — PEBD — position and weather

sailwx.info

Track history (hours):
 
Tides and Currents Weather Stations Pressure Air Temp Water Temp Dewpoint Dewpoint Depression Visibility Wind Speed Wind Dir Waves Ship Positions

Stella Polaris

Last reported at 2016-Apr-25 20:32 UTC. Time now 2016-May-04 13:32 UTC.
Position N 49°57' W 003°35'.
Warning: this ship's position is 8 days out of date.

Length 117 m; draft 7.7 m.

Type: Ship (hazmat cat A). MMSI: 245911000.

Date/timePositionNaut miles runAvg speedWind from/ knotsBaromVisibWave heightAir tempDewpointWater temp
2016-Apr-25 20:32N 49°57' W 003°35'1111.3
2016-Apr-25 19:33N 49°58' W 003°18'1211.7
2016-Apr-25 18:33N 49°59' W 002°60'10613.2
2016-Apr-25 10:33N 50°28' W 000°21'1010.3
2016-Apr-25 09:33N 50°31' W 000°05'1110.9
2016-Apr-25 08:33N 50°34' E 000°11'4212.9
2016-Apr-25 05:16N 50°55' E 001°09'912.7
2016-Apr-25 04:33N 51°00' E 001°21'1111.4
2016-Apr-25 03:33N 51°08' E 001°34'10 9.9
2016-Apr-25 02:33N 51°15' E 001°46'1110.6
2016-Apr-25 01:33N 51°23' E 001°57'1210.5
2016-Apr-25 00:27N 51°21' E 002°15'1111.6
2016-Apr-24 23:32N 51°23' E 002°32'1111.3
2016-Apr-24 22:33N 51°22' E 002°50'1313.4
2016-Apr-24 21:33N 51°24' E 003°11'1414.1
2016-Apr-24 20:33N 51°26' E 003°33'1110.9
2016-Apr-24 19:33N 51°21' E 003°49'1 1.3
2016-Apr-24 18:33N 51°19' E 003°49'5 5.0
2016-Apr-24 17:33N 51°14' E 003°49'2 2.0
2016-Apr-24 16:33N 51°12' E 003°48'0 0.0
2016-Apr-24 15:33N 51°12' E 003°48'0 0.0
2016-Apr-24 14:33N 51°12' E 003°48'0 0.0
2016-Apr-24 13:32N 51°12' E 003°48'0 0.0
2016-Apr-24 12:29N 51°12' E 003°48'0 0.0
2016-Apr-24 11:32N 51°12' E 003°48'0 0.0
2016-Apr-24 10:32N 51°12' E 003°48'0 0.0
2016-Apr-24 09:32N 51°12' E 003°48'0 0.0
2016-Apr-24 08:32N 51°12' E 003°48'0 0.0
2016-Apr-24 07:32N 51°12' E 003°48'0 0.0
2016-Apr-24 06:32N 51°12' E 003°48'0 0.0
2016-Apr-24 05:32N 51°12' E 003°48'0 0.0
2016-Apr-24 04:32N 51°12' E 003°48'0 0.0
2016-Apr-24 03:32N 51°12' E 003°48'0 0.0
2016-Apr-24 02:32N 51°12' E 003°48'0 0.0
2016-Apr-24 01:31N 51°12' E 003°48'0 0.0
2016-Apr-24 00:31N 51°12' E 003°48'0 0.0
2016-Apr-23 23:31N 51°12' E 003°48'0 0.0
2016-Apr-23 22:31N 51°12' E 003°48'0 0.0
2016-Apr-23 21:31N 51°12' E 003°48'0 0.0
2016-Apr-23 20:31N 51°12' E 003°48'0 0.0
2016-Apr-23 19:31N 51°12' E 003°48'0 0.0
2016-Apr-23 18:31N 51°12' E 003°48'0 0.0
2016-Apr-23 17:31N 51°12' E 003°48'0 0.0
2016-Apr-23 16:31N 51°12' E 003°48'0 0.0
2016-Apr-23 15:31N 51°12' E 003°48'0 0.0
2016-Apr-23 14:31N 51°12' E 003°48'0 0.0
2016-Apr-23 13:31N 51°12' E 003°48'0 0.0
2016-Apr-23 12:32N 51°12' E 003°48'0 0.0
2016-Apr-23 11:32N 51°12' E 003°48'0 0.0
2016-Apr-23 10:32N 51°12' E 003°48'0 0.0
2016-Apr-23 09:32N 51°12' E 003°48'0 0.0
2016-Apr-23 08:32N 51°12' E 003°48'0 0.0
2016-Apr-23 07:32N 51°12' E 003°48'0 0.0
2016-Apr-23 06:32N 51°12' E 003°48'0 0.0
2016-Apr-23 05:32N 51°12' E 003°48'0 0.0
2016-Apr-23 04:32N 51°12' E 003°48'0 0.0
2016-Apr-23 03:32N 51°12' E 003°48'0 0.0
2016-Apr-23 02:32N 51°12' E 003°48'0 0.0
2016-Apr-23 01:32N 51°12' E 003°48'0 0.0
2016-Apr-23 00:32N 51°12' E 003°48'0 0.0
2016-Apr-22 23:32N 51°12' E 003°48'0 0.0
2016-Apr-22 22:32N 51°12' E 003°48'0 0.0
2016-Apr-22 21:32N 51°12' E 003°48'0 0.0
2016-Apr-22 20:32N 51°12' E 003°48'0 0.0
2016-Apr-22 19:32N 51°12' E 003°48'0 0.0
2016-Apr-22 18:32N 51°12' E 003°48'0 0.0
2016-Apr-22 17:32N 51°12' E 003°48'0 0.0
2016-Apr-22 16:32N 51°12' E 003°48'0 0.0
2016-Apr-22 15:32N 51°12' E 003°48'0 0.0
2016-Apr-22 14:32N 51°12' E 003°48'0 0.0
2016-Apr-22 13:32N 51°12' E 003°48'0 0.0
2016-Apr-22 12:32N 51°12' E 003°48'0 0.0
2016-Apr-22 11:33N 51°12' E 003°48'4 3.7
2016-Apr-22 10:33N 51°16' E 003°50'4 4.0
2016-Apr-22 09:33N 51°20' E 003°49'1 0.7
2016-Apr-22 08:33N 51°20' E 003°49'8 7.8
2016-Apr-22 07:33N 51°25' E 003°39'1211.5
2016-Apr-22 06:33N 51°33' E 003°25'11810.7
2016-Apr-21 19:33N 53°31' E 003°35'4212.5
2016-Apr-21 16:10N 54°02' E 004°22'2314.0
2016-Apr-21 14:33N 54°21' E 004°45'24813.6
2016-Apr-20 20:15N 57°35' E 009°20'1313.2
2016-Apr-20 19:15N 57°42' E 009°41'913.3
2016-Apr-20 18:33N 57°46' E 009°57'1312.8
2016-Apr-20 17:33N 57°48' E 010°21'1212.1
2016-Apr-20 16:33N 57°50' E 010°43'1312.8
2016-Apr-20 15:31N 57°41' E 011°03'1313.1
2016-Apr-20 14:33N 57°34' E 011°21'1312.7
2016-Apr-20 13:33N 57°22' E 011°32'1413.6
2016-Apr-20 12:33N 57°09' E 011°40'1413.9
2016-Apr-20 11:33N 56°56' E 011°49'1414.0
2016-Apr-20 10:33N 56°43' E 011°56'1413.4
2016-Apr-20 09:33N 56°30' E 012°01'1313.2
2016-Apr-20 08:33N 56°17' E 012°08'1313.4
2016-Apr-20 07:33N 56°09' E 012°28'1111.1
2016-Apr-20 06:33N 56°01' E 012°41'1211.8
2016-Apr-20 05:33N 55°49' E 012°46'1212.5
2016-Apr-20 04:33N 55°40' E 012°60'2 1.7
2016-Apr-20 03:28N 55°38' E 013°01'0 0.0
2016-Apr-20 02:31N 55°38' E 013°01'0 0.0
2016-Apr-20 01:31N 55°38' E 013°01'0 0.0
2016-Apr-20 00:31N 55°38' E 013°01'0 0.0
2016-Apr-19 23:31N 55°38' E 013°01'0 0.0
2016-Apr-19 22:31N 55°38' E 013°01'0 0.0
2016-Apr-19 21:31N 55°38' E 013°01'0 0.0
2016-Apr-19 20:31N 55°38' E 013°01'0 0.0
2016-Apr-19 19:31N 55°38' E 013°01'0 0.0
2016-Apr-19 18:33N 55°38' E 013°01'0 0.0
2016-Apr-19 17:30N 55°38' E 013°01'0 0.0
2016-Apr-19 16:33N 55°38' E 013°01'0 0.0
2016-Apr-19 15:33N 55°38' E 013°01'0 0.0
2016-Apr-19 14:33N 55°38' E 013°01'0 0.0
2016-Apr-19 13:34N 55°38' E 013°01'7 7.0
2016-Apr-19 12:33N 55°43' E 012°53'1515.0
2016-Apr-19 11:34N 55°57' E 012°42'1514.7
2016-Apr-19 10:33N 56°09' E 012°27'4013.2
2016-Apr-19 07:33N 56°44' E 011°52'1814.4
2016-Apr-19 06:20N 57°00' E 011°42'1314.2
2016-Apr-19 05:26N 57°12' E 011°34'1314.4
2016-Apr-19 04:33N 57°24' E 011°26'1414.4
2016-Apr-19 03:34N 57°35' E 011°09'1514.9
2016-Apr-19 02:33N 57°46' E 010°48'12215.0
2016-Apr-18 18:24N 57°42' E 006°59'1214.4
2016-Apr-18 17:33N 57°43' E 006°37'29714.2
2016-Apr-17 20:33N 58°42' W 002°36'1515.5
2016-Apr-17 19:33N 58°43' W 003°06'1616.4
2016-Apr-17 18:33N 58°43' W 003°37'1515.2
2016-Apr-17 17:33N 58°43' W 004°07'  
Track history (hours):
 
Tides and Currents Weather Stations Pressure Air Temp Water Temp Dewpoint Dewpoint Depression Visibility Wind Speed Wind Dir Waves Ship Positions

Stella Polaris

Last reported at 2016-Apr-25 20:32 UTC. Time now 2016-May-04 13:32 UTC.
Position N 49°57' W 003°35'.
Warning: this ship's position is 8 days out of date.

Length 117 m; draft 7.7 m.

Type: Ship (hazmat cat A). MMSI: 245911000.

Date/timePositionNaut miles runAvg speedWind from/ knotsBaromVisibWave heightAir tempDewpointWater temp
2016-Apr-25 20:32N 49°57' W 003°35'1111.3
2016-Apr-25 19:33N 49°58' W 003°18'1211.7
2016-Apr-25 18:33N 49°59' W 002°60'10613.2
2016-Apr-25 10:33N 50°28' W 000°21'1010.3
2016-Apr-25 09:33N 50°31' W 000°05'1110.9
2016-Apr-25 08:33N 50°34' E 000°11'4212.9
2016-Apr-25 05:16N 50°55' E 001°09'912.7
2016-Apr-25 04:33N 51°00' E 001°21'1111.4
2016-Apr-25 03:33N 51°08' E 001°34'10 9.9
2016-Apr-25 02:33N 51°15' E 001°46'1110.6
2016-Apr-25 01:33N 51°23' E 001°57'1210.5
2016-Apr-25 00:27N 51°21' E 002°15'1111.6
2016-Apr-24 23:32N 51°23' E 002°32'1111.3
2016-Apr-24 22:33N 51°22' E 002°50'1313.4
2016-Apr-24 21:33N 51°24' E 003°11'1414.1
2016-Apr-24 20:33N 51°26' E 003°33'1110.9
2016-Apr-24 19:33N 51°21' E 003°49'1 1.3
2016-Apr-24 18:33N 51°19' E 003°49'5 5.0
2016-Apr-24 17:33N 51°14' E 003°49'2 2.0
2016-Apr-24 16:33N 51°12' E 003°48'0 0.0
2016-Apr-24 15:33N 51°12' E 003°48'0 0.0
2016-Apr-24 14:33N 51°12' E 003°48'0 0.0
2016-Apr-24 13:32N 51°12' E 003°48'0 0.0
2016-Apr-24 12:29N 51°12' E 003°48'0 0.0
2016-Apr-24 11:32N 51°12' E 003°48'0 0.0
2016-Apr-24 10:32N 51°12' E 003°48'0 0.0
2016-Apr-24 09:32N 51°12' E 003°48'0 0.0
2016-Apr-24 08:32N 51°12' E 003°48'0 0.0
2016-Apr-24 07:32N 51°12' E 003°48'0 0.0
2016-Apr-24 06:32N 51°12' E 003°48'0 0.0
2016-Apr-24 05:32N 51°12' E 003°48'0 0.0
2016-Apr-24 04:32N 51°12' E 003°48'0 0.0
2016-Apr-24 03:32N 51°12' E 003°48'0 0.0
2016-Apr-24 02:32N 51°12' E 003°48'0 0.0
2016-Apr-24 01:31N 51°12' E 003°48'0 0.0
2016-Apr-24 00:31N 51°12' E 003°48'0 0.0
2016-Apr-23 23:31N 51°12' E 003°48'0 0.0
2016-Apr-23 22:31N 51°12' E 003°48'0 0.0
2016-Apr-23 21:31N 51°12' E 003°48'0 0.0
2016-Apr-23 20:31N 51°12' E 003°48'0 0.0
2016-Apr-23 19:31N 51°12' E 003°48'0 0.0
2016-Apr-23 18:31N 51°12' E 003°48'0 0.0
2016-Apr-23 17:31N 51°12' E 003°48'0 0.0
2016-Apr-23 16:31N 51°12' E 003°48'0 0.0
2016-Apr-23 15:31N 51°12' E 003°48'0 0.0
2016-Apr-23 14:31N 51°12' E 003°48'0 0.0
2016-Apr-23 13:31N 51°12' E 003°48'0 0.0
2016-Apr-23 12:32N 51°12' E 003°48'0 0.0
2016-Apr-23 11:32N 51°12' E 003°48'0 0.0
2016-Apr-23 10:32N 51°12' E 003°48'0 0.0
2016-Apr-23 09:32N 51°12' E 003°48'0 0.0
2016-Apr-23 08:32N 51°12' E 003°48'0 0.0
2016-Apr-23 07:32N 51°12' E 003°48'0 0.0
2016-Apr-23 06:32N 51°12' E 003°48'0 0.0
2016-Apr-23 05:32N 51°12' E 003°48'0 0.0
2016-Apr-23 04:32N 51°12' E 003°48'0 0.0
2016-Apr-23 03:32N 51°12' E 003°48'0 0.0
2016-Apr-23 02:32N 51°12' E 003°48'0 0.0
2016-Apr-23 01:32N 51°12' E 003°48'0 0.0
2016-Apr-23 00:32N 51°12' E 003°48'0 0.0
2016-Apr-22 23:32N 51°12' E 003°48'0 0.0
2016-Apr-22 22:32N 51°12' E 003°48'0 0.0
2016-Apr-22 21:32N 51°12' E 003°48'0 0.0
2016-Apr-22 20:32N 51°12' E 003°48'0 0.0
2016-Apr-22 19:32N 51°12' E 003°48'0 0.0
2016-Apr-22 18:32N 51°12' E 003°48'0 0.0
2016-Apr-22 17:32N 51°12' E 003°48'0 0.0
2016-Apr-22 16:32N 51°12' E 003°48'0 0.0
2016-Apr-22 15:32N 51°12' E 003°48'0 0.0
2016-Apr-22 14:32N 51°12' E 003°48'0 0.0
2016-Apr-22 13:32N 51°12' E 003°48'0 0.0
2016-Apr-22 12:32N 51°12' E 003°48'0 0.0
2016-Apr-22 11:33N 51°12' E 003°48'4 3.7
2016-Apr-22 10:33N 51°16' E 003°50'4 4.0
2016-Apr-22 09:33N 51°20' E 003°49'1 0.7
2016-Apr-22 08:33N 51°20' E 003°49'8 7.8
2016-Apr-22 07:33N 51°25' E 003°39'1211.5
2016-Apr-22 06:33N 51°33' E 003°25'11810.7
2016-Apr-21 19:33N 53°31' E 003°35'4212.5
2016-Apr-21 16:10N 54°02' E 004°22'2314.0
2016-Apr-21 14:33N 54°21' E 004°45'24813.6
2016-Apr-20 20:15N 57°35' E 009°20'1313.2
2016-Apr-20 19:15N 57°42' E 009°41'913.3
2016-Apr-20 18:33N 57°46' E 009°57'1312.8
2016-Apr-20 17:33N 57°48' E 010°21'1212.1
2016-Apr-20 16:33N 57°50' E 010°43'1312.8
2016-Apr-20 15:31N 57°41' E 011°03'1313.1
2016-Apr-20 14:33N 57°34' E 011°21'1312.7
2016-Apr-20 13:33N 57°22' E 011°32'1413.6
2016-Apr-20 12:33N 57°09' E 011°40'1413.9
2016-Apr-20 11:33N 56°56' E 011°49'1414.0
2016-Apr-20 10:33N 56°43' E 011°56'1413.4
2016-Apr-20 09:33N 56°30' E 012°01'1313.2
2016-Apr-20 08:33N 56°17' E 012°08'1313.4
2016-Apr-20 07:33N 56°09' E 012°28'1111.1
2016-Apr-20 06:33N 56°01' E 012°41'1211.8
2016-Apr-20 05:33N 55°49' E 012°46'1212.5
2016-Apr-20 04:33N 55°40' E 012°60'2 1.7
2016-Apr-20 03:28N 55°38' E 013°01'0 0.0
2016-Apr-20 02:31N 55°38' E 013°01'0 0.0
2016-Apr-20 01:31N 55°38' E 013°01'0 0.0
2016-Apr-20 00:31N 55°38' E 013°01'0 0.0
2016-Apr-19 23:31N 55°38' E 013°01'0 0.0
2016-Apr-19 22:31N 55°38' E 013°01'0 0.0
2016-Apr-19 21:31N 55°38' E 013°01'0 0.0
2016-Apr-19 20:31N 55°38' E 013°01'0 0.0
2016-Apr-19 19:31N 55°38' E 013°01'0 0.0
2016-Apr-19 18:33N 55°38' E 013°01'0 0.0
2016-Apr-19 17:30N 55°38' E 013°01'0 0.0
2016-Apr-19 16:33N 55°38' E 013°01'0 0.0
2016-Apr-19 15:33N 55°38' E 013°01'0 0.0
2016-Apr-19 14:33N 55°38' E 013°01'0 0.0
2016-Apr-19 13:34N 55°38' E 013°01'7 7.0
2016-Apr-19 12:33N 55°43' E 012°53'1515.0
2016-Apr-19 11:34N 55°57' E 012°42'1514.7
2016-Apr-19 10:33N 56°09' E 012°27'4013.2
2016-Apr-19 07:33N 56°44' E 011°52'1814.4
2016-Apr-19 06:20N 57°00' E 011°42'1314.2
2016-Apr-19 05:26N 57°12' E 011°34'1314.4
2016-Apr-19 04:33N 57°24' E 011°26'1414.4
2016-Apr-19 03:34N 57°35' E 011°09'1514.9
2016-Apr-19 02:33N 57°46' E 010°48'12215.0
2016-Apr-18 18:24N 57°42' E 006°59'1214.4
2016-Apr-18 17:33N 57°43' E 006°37'29714.2
2016-Apr-17 20:33N 58°42' W 002°36'1515.5
2016-Apr-17 19:33N 58°43' W 003°06'1616.4
2016-Apr-17 18:33N 58°43' W 003°37'1515.2
2016-Apr-17 17:33N 58°43' W 004°07'  

Dump ship's entire track history